sensor_id;sensor_type;location;lat;lon;timestamp;P1;durP1;ratioP1;P2;durP2;ratioP2
34978;SDS011;21185;50.978;13.720;2022-08-19T00:03:29;11.43;;;6.25;;
34978;SDS011;21185;50.978;13.720;2022-08-19T00:08:31;9.30;;;5.03;;
34978;SDS011;21185;50.978;13.720;2022-08-19T00:13:33;8.48;;;5.82;;
34978;SDS011;21185;50.978;13.720;2022-08-19T00:18:35;11.73;;;6.13;;
34978;SDS011;21185;50.978;13.720;2022-08-19T00:23:37;13.93;;;6.28;;
34978;SDS011;21185;50.978;13.720;2022-08-19T00:28:39;9.90;;;6.05;;
34978;SDS011;21185;50.978;13.720;2022-08-19T00:33:41;11.73;;;7.32;;
34978;SDS011;21185;50.978;13.720;2022-08-19T00:38:44;9.73;;;5.95;;
34978;SDS011;21185;50.978;13.720;2022-08-19T00:43:57;8.73;;;5.40;;
34978;SDS011;21185;50.978;13.720;2022-08-19T00:49:12;9.95;;;6.15;;
34978;SDS011;21185;50.978;13.720;2022-08-19T00:54:29;14.70;;;6.30;;
34978;SDS011;21185;50.978;13.720;2022-08-19T00:59:34;13.47;;;6.63;;
34978;SDS011;21185;50.978;13.720;2022-08-19T01:05:00;9.57;;;5.57;;
34978;SDS011;21185;50.978;13.720;2022-08-19T01:10:08;12.27;;;6.97;;
34978;SDS011;21185;50.978;13.720;2022-08-19T01:15:14;11.70;;;6.93;;
34978;SDS011;21185;50.978;13.720;2022-08-19T01:20:21;14.02;;;7.03;;
34978;SDS011;21185;50.978;13.720;2022-08-19T01:25:32;9.95;;;5.90;;
34978;SDS011;21185;50.978;13.720;2022-08-19T01:30:41;9.97;;;6.30;;
34978;SDS011;21185;50.978;13.720;2022-08-19T01:35:51;13.55;;;6.93;;
34978;SDS011;21185;50.978;13.720;2022-08-19T01:40:53;13.20;;;6.80;;
34978;SDS011;21185;50.978;13.720;2022-08-19T01:45:56;14.05;;;6.35;;
34978;SDS011;21185;50.978;13.720;2022-08-19T01:50:58;11.40;;;6.70;;
34978;SDS011;21185;50.978;13.720;2022-08-19T01:56:00;16.40;;;6.65;;
34978;SDS011;21185;50.978;13.720;2022-08-19T02:01:04;10.00;;;6.55;;
34978;SDS011;21185;50.978;13.720;2022-08-19T02:06:07;10.65;;;6.35;;
34978;SDS011;21185;50.978;13.720;2022-08-19T02:11:18;10.57;;;7.00;;
34978;SDS011;21185;50.978;13.720;2022-08-19T02:16:22;15.68;;;7.10;;
34978;SDS011;21185;50.978;13.720;2022-08-19T02:21:25;11.98;;;7.00;;
34978;SDS011;21185;50.978;13.720;2022-08-19T02:26:27;13.77;;;7.70;;
34978;SDS011;21185;50.978;13.720;2022-08-19T02:31:28;18.83;;;8.85;;
34978;SDS011;21185;50.978;13.720;2022-08-19T02:36:30;13.80;;;8.30;;
34978;SDS011;21185;50.978;13.720;2022-08-19T02:41:32;18.23;;;7.35;;
34978;SDS011;21185;50.978;13.720;2022-08-19T02:46:35;16.60;;;7.78;;
34978;SDS011;21185;50.978;13.720;2022-08-19T02:51:39;13.70;;;7.70;;
34978;SDS011;21185;50.978;13.720;2022-08-19T02:56:43;14.02;;;7.53;;
34978;SDS011;21185;50.978;13.720;2022-08-19T03:01:46;19.38;;;6.97;;
34978;SDS011;21185;50.978;13.720;2022-08-19T03:06:48;12.68;;;6.68;;
34978;SDS011;21185;50.978;13.720;2022-08-19T03:11:50;11.32;;;7.20;;
34978;SDS011;21185;50.978;13.720;2022-08-19T03:16:54;9.38;;;6.25;;
34978;SDS011;21185;50.978;13.720;2022-08-19T03:21:59;13.65;;;7.63;;
34978;SDS011;21185;50.978;13.720;2022-08-19T03:27:01;11.35;;;7.35;;
34978;SDS011;21185;50.978;13.720;2022-08-19T03:32:05;13.10;;;7.55;;
34978;SDS011;21185;50.978;13.720;2022-08-19T03:37:28;12.43;;;7.28;;
34978;SDS011;21185;50.978;13.720;2022-08-19T03:42:30;13.13;;;7.68;;
34978;SDS011;21185;50.978;13.720;2022-08-19T03:47:49;15.18;;;7.40;;
34978;SDS011;21185;50.978;13.720;2022-08-19T03:52:52;14.35;;;8.52;;
34978;SDS011;21185;50.978;13.720;2022-08-19T03:57:54;13.80;;;8.40;;
34978;SDS011;21185;50.978;13.720;2022-08-19T04:02:59;18.05;;;8.32;;
34978;SDS011;21185;50.978;13.720;2022-08-19T04:08:02;13.82;;;8.05;;
34978;SDS011;21185;50.978;13.720;2022-08-19T04:13:14;18.55;;;8.55;;
34978;SDS011;21185;50.978;13.720;2022-08-19T04:18:17;15.52;;;8.40;;
34978;SDS011;21185;50.978;13.720;2022-08-19T04:23:19;16.17;;;8.55;;
34978;SDS011;21185;50.978;13.720;2022-08-19T04:28:22;14.88;;;8.32;;
34978;SDS011;21185;50.978;13.720;2022-08-19T04:33:25;13.65;;;7.78;;
34978;SDS011;21185;50.978;13.720;2022-08-19T04:38:29;12.50;;;7.88;;
34978;SDS011;21185;50.978;13.720;2022-08-19T04:43:31;13.88;;;8.13;;
34978;SDS011;21185;50.978;13.720;2022-08-19T04:48:35;22.40;;;8.80;;
34978;SDS011;21185;50.978;13.720;2022-08-19T04:53:50;17.00;;;8.43;;
34978;SDS011;21185;50.978;13.720;2022-08-19T04:58:54;18.35;;;7.75;;
34978;SDS011;21185;50.978;13.720;2022-08-19T05:03:58;15.52;;;8.35;;
34978;SDS011;21185;50.978;13.720;2022-08-19T05:09:03;16.55;;;8.55;;
34978;SDS011;21185;50.978;13.720;2022-08-19T05:14:06;12.93;;;7.80;;
34978;SDS011;21185;50.978;13.720;2022-08-19T05:19:09;15.18;;;7.95;;
34978;SDS011;21185;50.978;13.720;2022-08-19T05:24:33;19.40;;;8.52;;
34978;SDS011;21185;50.978;13.720;2022-08-19T05:29:48;15.10;;;7.85;;
34978;SDS011;21185;50.978;13.720;2022-08-19T05:34:49;13.60;;;7.55;;
34978;SDS011;21185;50.978;13.720;2022-08-19T05:39:52;16.92;;;8.32;;
34978;SDS011;21185;50.978;13.720;2022-08-19T05:44:54;14.30;;;7.60;;
34978;SDS011;21185;50.978;13.720;2022-08-19T05:49:58;14.05;;;7.82;;
34978;SDS011;21185;50.978;13.720;2022-08-19T05:55:00;11.55;;;7.53;;
34978;SDS011;21185;50.978;13.720;2022-08-19T06:00:03;12.63;;;7.10;;
34978;SDS011;21185;50.978;13.720;2022-08-19T06:05:12;15.15;;;7.97;;
34978;SDS011;21185;50.978;13.720;2022-08-19T06:10:14;9.88;;;5.80;;
34978;SDS011;21185;50.978;13.720;2022-08-19T06:15:16;9.50;;;5.72;;
34978;SDS011;21185;50.978;13.720;2022-08-19T06:20:18;9.55;;;5.15;;
34978;SDS011;21185;50.978;13.720;2022-08-19T06:25:40;10.68;;;4.32;;
34978;SDS011;21185;50.978;13.720;2022-08-19T06:30:42;9.85;;;5.70;;
34978;SDS011;21185;50.978;13.720;2022-08-19T06:35:44;7.40;;;4.55;;
34978;SDS011;21185;50.978;13.720;2022-08-19T06:40:46;12.20;;;5.18;;
34978;SDS011;21185;50.978;13.720;2022-08-19T06:45:48;7.75;;;4.90;;
34978;SDS011;21185;50.978;13.720;2022-08-19T06:50:54;9.55;;;4.30;;
34978;SDS011;21185;50.978;13.720;2022-08-19T06:55:56;7.43;;;4.38;;
34978;SDS011;21185;50.978;13.720;2022-08-19T07:01:02;6.50;;;4.45;;
34978;SDS011;21185;50.978;13.720;2022-08-19T07:06:12;7.28;;;4.72;;
34978;SDS011;21185;50.978;13.720;2022-08-19T07:11:36;8.18;;;4.47;;
34978;SDS011;21185;50.978;13.720;2022-08-19T07:16:38;10.85;;;4.80;;
34978;SDS011;21185;50.978;13.720;2022-08-19T07:21:44;14.95;;;5.68;;
34978;SDS011;21185;50.978;13.720;2022-08-19T07:26:47;9.52;;;5.10;;
34978;SDS011;21185;50.978;13.720;2022-08-19T07:31:52;8.63;;;5.32;;
34978;SDS011;21185;50.978;13.720;2022-08-19T07:36:57;8.30;;;5.28;;
34978;SDS011;21185;50.978;13.720;2022-08-19T07:42:00;10.73;;;5.25;;
34978;SDS011;21185;50.978;13.720;2022-08-19T07:47:08;8.30;;;5.03;;
34978;SDS011;21185;50.978;13.720;2022-08-19T07:52:30;7.50;;;4.53;;
34978;SDS011;21185;50.978;13.720;2022-08-19T07:57:35;9.57;;;5.38;;
34978;SDS011;21185;50.978;13.720;2022-08-19T08:02:37;9.02;;;4.57;;
34978;SDS011;21185;50.978;13.720;2022-08-19T08:07:40;8.95;;;5.03;;
34978;SDS011;21185;50.978;13.720;2022-08-19T08:13:28;13.00;;;5.53;;
34978;SDS011;21185;50.978;13.720;2022-08-19T08:18:30;9.73;;;5.38;;
34978;SDS011;21185;50.978;13.720;2022-08-19T08:23:32;11.75;;;5.60;;
34978;SDS011;21185;50.978;13.720;2022-08-19T08:28:34;12.38;;;5.40;;
34978;SDS011;21185;50.978;13.720;2022-08-19T08:33:36;9.75;;;5.68;;
34978;SDS011;21185;50.978;13.720;2022-08-19T08:38:40;11.00;;;5.95;;
34978;SDS011;21185;50.978;13.720;2022-08-19T08:43:48;10.02;;;6.07;;
34978;SDS011;21185;50.978;13.720;2022-08-19T08:48:55;14.07;;;6.75;;
34978;SDS011;21185;50.978;13.720;2022-08-19T08:54:04;11.63;;;6.13;;
34978;SDS011;21185;50.978;13.720;2022-08-19T08:59:19;9.50;;;5.75;;
34978;SDS011;21185;50.978;13.720;2022-08-19T09:04:26;10.23;;;5.38;;
34978;SDS011;21185;50.978;13.720;2022-08-19T09:09:34;12.13;;;5.18;;
34978;SDS011;21185;50.978;13.720;2022-08-19T09:15:15;8.43;;;5.15;;
34978;SDS011;21185;50.978;13.720;2022-08-19T09:20:18;11.10;;;5.30;;
34978;SDS011;21185;50.978;13.720;2022-08-19T09:25:23;7.65;;;4.22;;
34978;SDS011;21185;50.978;13.720;2022-08-19T09:30:32;7.63;;;4.03;;
34978;SDS011;21185;50.978;13.720;2022-08-19T09:35:40;8.40;;;3.72;;
34978;SDS011;21185;50.978;13.720;2022-08-19T09:40:53;8.73;;;4.60;;
34978;SDS011;21185;50.978;13.720;2022-08-19T09:45:56;11.02;;;4.88;;
34978;SDS011;21185;50.978;13.720;2022-08-19T09:51:03;8.10;;;4.60;;
34978;SDS011;21185;50.978;13.720;2022-08-19T09:56:05;7.57;;;5.05;;
34978;SDS011;21185;50.978;13.720;2022-08-19T10:01:14;8.70;;;4.97;;
34978;SDS011;21185;50.978;13.720;2022-08-19T10:06:23;11.05;;;4.97;;
34978;SDS011;21185;50.978;13.720;2022-08-19T10:11:47;7.00;;;4.03;;
34978;SDS011;21185;50.978;13.720;2022-08-19T10:16:55;5.82;;;3.15;;
34978;SDS011;21185;50.978;13.720;2022-08-19T10:22:01;4.75;;;2.92;;
34978;SDS011;21185;50.978;13.720;2022-08-19T10:27:10;5.90;;;3.63;;
34978;SDS011;21185;50.978;13.720;2022-08-19T10:32:16;5.13;;;3.13;;
34978;SDS011;21185;50.978;13.720;2022-08-19T10:37:18;5.15;;;2.90;;
34978;SDS011;21185;50.978;13.720;2022-08-19T10:42:31;5.07;;;2.47;;
34978;SDS011;21185;50.978;13.720;2022-08-19T10:47:33;3.70;;;2.58;;
34978;SDS011;21185;50.978;13.720;2022-08-19T10:52:35;3.60;;;2.28;;
34978;SDS011;21185;50.978;13.720;2022-08-19T10:57:39;4.13;;;2.42;;
34978;SDS011;21185;50.978;13.720;2022-08-19T11:03:02;3.83;;;2.20;;
34978;SDS011;21185;50.978;13.720;2022-08-19T11:08:04;4.88;;;2.45;;
34978;SDS011;21185;50.978;13.720;2022-08-19T11:13:24;4.40;;;2.38;;
34978;SDS011;21185;50.978;13.720;2022-08-19T11:18:26;5.25;;;2.05;;
34978;SDS011;21185;50.978;13.720;2022-08-19T11:23:29;3.05;;;1.92;;
34978;SDS011;21185;50.978;13.720;2022-08-19T11:28:31;3.78;;;1.95;;
34978;SDS011;21185;50.978;13.720;2022-08-19T11:33:33;2.85;;;1.67;;
34978;SDS011;21185;50.978;13.720;2022-08-19T11:38:36;3.60;;;1.80;;
34978;SDS011;21185;50.978;13.720;2022-08-19T11:43:38;3.15;;;1.83;;
34978;SDS011;21185;50.978;13.720;2022-08-19T11:48:41;3.70;;;2.00;;
34978;SDS011;21185;50.978;13.720;2022-08-19T11:53:43;3.67;;;1.90;;
34978;SDS011;21185;50.978;13.720;2022-08-19T11:58:46;3.42;;;1.95;;
34978;SDS011;21185;50.978;13.720;2022-08-19T12:03:49;6.00;;;3.00;;
34978;SDS011;21185;50.978;13.720;2022-08-19T12:08:56;6.07;;;3.60;;
34978;SDS011;21185;50.978;13.720;2022-08-19T12:14:02;8.35;;;5.18;;
34978;SDS011;21185;50.978;13.720;2022-08-19T12:19:04;6.35;;;4.18;;
34978;SDS011;21185;50.978;13.720;2022-08-19T12:24:07;9.13;;;4.60;;
34978;SDS011;21185;50.978;13.720;2022-08-19T12:29:09;7.75;;;4.90;;
34978;SDS011;21185;50.978;13.720;2022-08-19T12:34:11;7.65;;;4.20;;
34978;SDS011;21185;50.978;13.720;2022-08-19T12:39:16;11.45;;;5.68;;
34978;SDS011;21185;50.978;13.720;2022-08-19T12:44:20;10.65;;;6.20;;
34978;SDS011;21185;50.978;13.720;2022-08-19T12:49:33;10.85;;;6.40;;
34978;SDS011;21185;50.978;13.720;2022-08-19T12:54:55;10.95;;;6.18;;
34978;SDS011;21185;50.978;13.720;2022-08-19T12:59:59;12.30;;;6.45;;
34978;SDS011;21185;50.978;13.720;2022-08-19T13:10:11;16.45;;;7.40;;
34978;SDS011;21185;50.978;13.720;2022-08-19T13:15:17;12.13;;;6.37;;
34978;SDS011;21185;50.978;13.720;2022-08-19T13:20:24;14.38;;;7.18;;
34978;SDS011;21185;50.978;13.720;2022-08-19T13:25:27;19.35;;;8.18;;
34978;SDS011;21185;50.978;13.720;2022-08-19T13:30:29;12.93;;;7.35;;
34978;SDS011;21185;50.978;13.720;2022-08-19T13:35:51;14.38;;;8.18;;
34978;SDS011;21185;50.978;13.720;2022-08-19T13:41:03;15.15;;;7.68;;
34978;SDS011;21185;50.978;13.720;2022-08-19T13:46:13;10.35;;;6.47;;
34978;SDS011;21185;50.978;13.720;2022-08-19T13:51:16;20.50;;;7.38;;
34978;SDS011;21185;50.978;13.720;2022-08-19T13:56:19;16.60;;;9.05;;
34978;SDS011;21185;50.978;13.720;2022-08-19T14:01:26;22.95;;;9.02;;
34978;SDS011;21185;50.978;13.720;2022-08-19T14:06:28;21.50;;;10.68;;
34978;SDS011;21185;50.978;13.720;2022-08-19T14:11:30;19.48;;;9.88;;
34978;SDS011;21185;50.978;13.720;2022-08-19T14:16:32;20.05;;;10.82;;
34978;SDS011;21185;50.978;13.720;2022-08-19T14:21:35;25.70;;;11.82;;
34978;SDS011;21185;50.978;13.720;2022-08-19T14:26:41;25.80;;;11.45;;
34978;SDS011;21185;50.978;13.720;2022-08-19T14:31:43;23.85;;;10.38;;
34978;SDS011;21185;50.978;13.720;2022-08-19T14:36:45;25.65;;;10.80;;
34978;SDS011;21185;50.978;13.720;2022-08-19T14:41:50;24.63;;;10.77;;
34978;SDS011;21185;50.978;13.720;2022-08-19T14:46:52;21.00;;;10.25;;
34978;SDS011;21185;50.978;13.720;2022-08-19T14:51:55;21.45;;;10.50;;
34978;SDS011;21185;50.978;13.720;2022-08-19T14:57:01;18.45;;;9.13;;
34978;SDS011;21185;50.978;13.720;2022-08-19T15:02:03;19.02;;;10.45;;
34978;SDS011;21185;50.978;13.720;2022-08-19T15:07:25;22.98;;;9.93;;
34978;SDS011;21185;50.978;13.720;2022-08-19T15:12:30;18.52;;;9.85;;
34978;SDS011;21185;50.978;13.720;2022-08-19T15:17:32;20.85;;;9.65;;
34978;SDS011;21185;50.978;13.720;2022-08-19T15:22:46;17.48;;;9.45;;
34978;SDS011;21185;50.978;13.720;2022-08-19T15:27:48;20.98;;;9.90;;
34978;SDS011;21185;50.978;13.720;2022-08-19T15:32:51;23.20;;;10.82;;
34978;SDS011;21185;50.978;13.720;2022-08-19T15:37:54;18.40;;;9.90;;
34978;SDS011;21185;50.978;13.720;2022-08-19T15:42:57;24.75;;;10.65;;
34978;SDS011;21185;50.978;13.720;2022-08-19T15:48:00;19.83;;;9.63;;
34978;SDS011;21185;50.978;13.720;2022-08-19T15:53:06;18.88;;;8.57;;
34978;SDS011;21185;50.978;13.720;2022-08-19T15:58:13;16.40;;;9.23;;
34978;SDS011;21185;50.978;13.720;2022-08-19T16:03:34;22.33;;;10.50;;
34978;SDS011;21185;50.978;13.720;2022-08-19T16:08:56;16.40;;;8.60;;
34978;SDS011;21185;50.978;13.720;2022-08-19T16:14:02;16.88;;;9.32;;
34978;SDS011;21185;50.978;13.720;2022-08-19T16:19:06;14.93;;;8.30;;
34978;SDS011;21185;50.978;13.720;2022-08-19T16:24:13;15.80;;;9.18;;
34978;SDS011;21185;50.978;13.720;2022-08-19T16:29:17;18.35;;;8.40;;
34978;SDS011;21185;50.978;13.720;2022-08-19T16:39:36;17.40;;;7.80;;
34978;SDS011;21185;50.978;13.720;2022-08-19T16:44:40;15.05;;;7.47;;
34978;SDS011;21185;50.978;13.720;2022-08-19T16:49:45;16.02;;;8.07;;
34978;SDS011;21185;50.978;13.720;2022-08-19T16:54:55;18.20;;;7.40;;
34978;SDS011;21185;50.978;13.720;2022-08-19T16:59:58;12.38;;;6.82;;
34978;SDS011;21185;50.978;13.720;2022-08-19T17:05:00;13.75;;;7.47;;
34978;SDS011;21185;50.978;13.720;2022-08-19T17:10:04;16.08;;;7.00;;
34978;SDS011;21185;50.978;13.720;2022-08-19T17:15:06;15.07;;;6.53;;
34978;SDS011;21185;50.978;13.720;2022-08-19T17:20:09;16.48;;;7.97;;
34978;SDS011;21185;50.978;13.720;2022-08-19T17:25:11;16.73;;;7.45;;
34978;SDS011;21185;50.978;13.720;2022-08-19T17:30:13;18.42;;;8.00;;
34978;SDS011;21185;50.978;13.720;2022-08-19T17:35:15;12.35;;;6.53;;
34978;SDS011;21185;50.978;13.720;2022-08-19T17:40:25;13.77;;;7.95;;
34978;SDS011;21185;50.978;13.720;2022-08-19T17:45:30;12.85;;;6.18;;
34978;SDS011;21185;50.978;13.720;2022-08-19T17:50:32;13.57;;;6.68;;
34978;SDS011;21185;50.978;13.720;2022-08-19T17:55:35;12.48;;;6.75;;
34978;SDS011;21185;50.978;13.720;2022-08-19T18:00:37;12.02;;;6.28;;
34978;SDS011;21185;50.978;13.720;2022-08-19T18:05:54;14.45;;;6.70;;
34978;SDS011;21185;50.978;13.720;2022-08-19T18:10:58;15.98;;;7.15;;
34978;SDS011;21185;50.978;13.720;2022-08-19T18:16:01;13.98;;;7.22;;
34978;SDS011;21185;50.978;13.720;2022-08-19T18:21:05;13.25;;;7.05;;
34978;SDS011;21185;50.978;13.720;2022-08-19T18:26:07;17.58;;;7.07;;
34978;SDS011;21185;50.978;13.720;2022-08-19T18:31:09;15.85;;;8.02;;
34978;SDS011;21185;50.978;13.720;2022-08-19T18:36:11;14.65;;;7.55;;
34978;SDS011;21185;50.978;13.720;2022-08-19T18:41:14;15.68;;;7.75;;
34978;SDS011;21185;50.978;13.720;2022-08-19T18:46:34;15.93;;;7.93;;
34978;SDS011;21185;50.978;13.720;2022-08-19T18:51:58;16.13;;;7.68;;
34978;SDS011;21185;50.978;13.720;2022-08-19T18:57:02;11.18;;;6.78;;
34978;SDS011;21185;50.978;13.720;2022-08-19T19:02:06;12.20;;;6.60;;
34978;SDS011;21185;50.978;13.720;2022-08-19T19:07:09;15.15;;;8.15;;
34978;SDS011;21185;50.978;13.720;2022-08-19T19:12:12;16.38;;;8.55;;
34978;SDS011;21185;50.978;13.720;2022-08-19T19:17:14;14.38;;;8.50;;
34978;SDS011;21185;50.978;13.720;2022-08-19T19:22:18;18.27;;;9.25;;
34978;SDS011;21185;50.978;13.720;2022-08-19T19:27:22;18.48;;;9.63;;
34978;SDS011;21185;50.978;13.720;2022-08-19T19:32:25;23.65;;;9.52;;
34978;SDS011;21185;50.978;13.720;2022-08-19T19:37:39;23.98;;;9.48;;
34978;SDS011;21185;50.978;13.720;2022-08-19T19:42:44;21.83;;;9.07;;
34978;SDS011;21185;50.978;13.720;2022-08-19T19:47:48;18.63;;;8.70;;
34978;SDS011;21185;50.978;13.720;2022-08-19T19:52:50;18.67;;;9.38;;
34978;SDS011;21185;50.978;13.720;2022-08-19T19:57:52;23.70;;;9.85;;
34978;SDS011;21185;50.978;13.720;2022-08-19T20:02:55;19.45;;;9.07;;
34978;SDS011;21185;50.978;13.720;2022-08-19T20:07:57;19.67;;;9.73;;
34978;SDS011;21185;50.978;13.720;2022-08-19T20:13:19;22.08;;;9.40;;
34978;SDS011;21185;50.978;13.720;2022-08-19T20:18:22;17.77;;;9.32;;
34978;SDS011;21185;50.978;13.720;2022-08-19T20:23:25;16.85;;;8.05;;
34978;SDS011;21185;50.978;13.720;2022-08-19T20:28:27;15.43;;;8.68;;
34978;SDS011;21185;50.978;13.720;2022-08-19T20:33:30;19.50;;;9.15;;
34978;SDS011;21185;50.978;13.720;2022-08-19T20:38:32;15.65;;;8.15;;
34978;SDS011;21185;50.978;13.720;2022-08-19T20:43:36;17.60;;;8.73;;
34978;SDS011;21185;50.978;13.720;2022-08-19T20:48:38;16.83;;;8.30;;
34978;SDS011;21185;50.978;13.720;2022-08-19T20:53:42;16.27;;;7.95;;
34978;SDS011;21185;50.978;13.720;2022-08-19T20:58:45;16.35;;;8.13;;
34978;SDS011;21185;50.978;13.720;2022-08-19T21:03:55;17.92;;;8.05;;
34978;SDS011;21185;50.978;13.720;2022-08-19T21:08:56;16.75;;;7.88;;
34978;SDS011;21185;50.978;13.720;2022-08-19T21:13:58;17.95;;;8.02;;
34978;SDS011;21185;50.978;13.720;2022-08-19T21:19:01;20.02;;;7.78;;
34978;SDS011;21185;50.978;13.720;2022-08-19T21:24:03;15.35;;;7.70;;
34978;SDS011;21185;50.978;13.720;2022-08-19T21:29:05;12.93;;;6.68;;
34978;SDS011;21185;50.978;13.720;2022-08-19T21:34:08;15.30;;;7.20;;
34978;SDS011;21185;50.978;13.720;2022-08-19T21:39:10;14.50;;;7.00;;
34978;SDS011;21185;50.978;13.720;2022-08-19T21:44:11;16.13;;;7.57;;
34978;SDS011;21185;50.978;13.720;2022-08-19T21:49:13;17.63;;;7.95;;
34978;SDS011;21185;50.978;13.720;2022-08-19T21:54:15;16.25;;;7.75;;
34978;SDS011;21185;50.978;13.720;2022-08-19T21:59:17;17.67;;;7.75;;
34978;SDS011;21185;50.978;13.720;2022-08-19T22:04:19;15.98;;;7.25;;
34978;SDS011;21185;50.978;13.720;2022-08-19T22:09:21;16.50;;;7.13;;
34978;SDS011;21185;50.978;13.720;2022-08-19T22:14:23;14.00;;;7.13;;
34978;SDS011;21185;50.978;13.720;2022-08-19T22:19:26;16.33;;;7.63;;
34978;SDS011;21185;50.978;13.720;2022-08-19T22:24:29;14.13;;;7.53;;
34978;SDS011;21185;50.978;13.720;2022-08-19T22:29:31;28.50;;;7.43;;
34978;SDS011;21185;50.978;13.720;2022-08-19T22:34:34;17.50;;;7.03;;
34978;SDS011;21185;50.978;13.720;2022-08-19T22:39:37;15.98;;;6.88;;
34978;SDS011;21185;50.978;13.720;2022-08-19T22:44:39;15.15;;;7.28;;
34978;SDS011;21185;50.978;13.720;2022-08-19T22:49:41;16.98;;;7.57;;
34978;SDS011;21185;50.978;13.720;2022-08-19T22:54:45;16.85;;;7.88;;
34978;SDS011;21185;50.978;13.720;2022-08-19T22:59:49;13.90;;;7.20;;
34978;SDS011;21185;50.978;13.720;2022-08-19T23:04:54;14.52;;;6.90;;
34978;SDS011;21185;50.978;13.720;2022-08-19T23:09:56;17.13;;;7.10;;
34978;SDS011;21185;50.978;13.720;2022-08-19T23:15:11;16.70;;;8.02;;
34978;SDS011;21185;50.978;13.720;2022-08-19T23:20:16;16.52;;;7.70;;
34978;SDS011;21185;50.978;13.720;2022-08-19T23:25:19;15.98;;;7.05;;
34978;SDS011;21185;50.978;13.720;2022-08-19T23:30:25;20.65;;;8.15;;
34978;SDS011;21185;50.978;13.720;2022-08-19T23:35:30;18.25;;;8.13;;
34978;SDS011;21185;50.978;13.720;2022-08-19T23:40:35;15.85;;;7.38;;
34978;SDS011;21185;50.978;13.720;2022-08-19T23:45:39;16.52;;;7.35;;
34978;SDS011;21185;50.978;13.720;2022-08-19T23:50:52;13.93;;;7.55;;
34978;SDS011;21185;50.978;13.720;2022-08-19T23:55:54;15.13;;;7.18;;
